createdAt,value
2022-10-17T00:00:34.495Z,98928.63
2022-10-17T00:03:01.841Z,98931.25
2022-10-17T00:05:28.500Z,98932.16
2022-10-17T00:07:55.619Z,98933.97
2022-10-17T00:10:22.858Z,98946.22
2022-10-17T00:12:51.093Z,98948.88
2022-10-17T00:15:22.486Z,98949.75
2022-10-17T00:17:49.981Z,98949.72
2022-10-17T00:20:18.237Z,98948.00
2022-10-17T00:22:44.944Z,98952.34
2022-10-17T00:25:11.971Z,98939.25
2022-10-17T00:27:40.359Z,98945.38
2022-10-17T00:30:10.332Z,98946.22
2022-10-17T00:32:37.092Z,98948.00
2022-10-17T00:35:08.497Z,98949.75
2022-10-17T00:37:37.535Z,98951.53
2022-10-17T00:40:05.863Z,98951.50
2022-10-17T00:42:34.606Z,98949.78
2022-10-17T00:45:30.640Z,98951.53
2022-10-17T00:48:05.585Z,98946.25
2022-10-17T00:50:33.669Z,98945.38
2022-10-17T00:53:02.813Z,98947.16
2022-10-17T00:55:33.353Z,98947.19
2022-10-17T00:58:06.709Z,98951.56
2022-10-17T01:00:33.518Z,98948.03
2022-10-17T01:03:00.175Z,98947.16
2022-10-17T01:05:27.083Z,98948.06
2022-10-17T01:07:54.735Z,98955.03
2022-10-17T01:13:11.199Z,98943.66
2022-10-17T01:15:52.877Z,98951.53
2022-10-17T01:18:41.517Z,98956.75
2022-10-17T01:21:20.400Z,98956.75
2022-10-17T01:24:05.397Z,98950.63
2022-10-17T01:26:40.402Z,98954.13
2022-10-17T01:29:25.046Z,98955.84
2022-10-17T01:32:00.888Z,98959.31
2022-10-17T01:34:39.485Z,98962.78
2022-10-17T01:37:20.806Z,98960.19
2022-10-17T01:39:52.822Z,98957.53
2022-10-17T01:42:23.835Z,98964.53
2022-10-17T01:45:02.808Z,98953.22
2022-10-17T01:47:34.076Z,98956.63
2022-10-17T01:50:14.118Z,98961.00
2022-10-17T01:52:46.676Z,98963.66
2022-10-17T01:55:21.248Z,98969.72
2022-10-17T01:57:57.698Z,98971.50
2022-10-17T02:00:30.041Z,98974.03
2022-10-17T02:03:04.285Z,98982.72
2022-10-17T02:05:40.624Z,98983.59
2022-10-17T02:08:07.519Z,98981.84
2022-10-17T02:10:41.686Z,98985.31
2022-10-17T02:13:50.045Z,98995.81
2022-10-17T02:16:33.963Z,98997.53
2022-10-17T02:19:38.359Z,99003.63
2022-10-17T02:22:54.145Z,99006.22
2022-10-17T02:25:42.264Z,99008.00
2022-10-17T02:28:21.254Z,99003.69
2022-10-17T02:31:07.575Z,99006.28
2022-10-17T02:33:41.872Z,99006.34
2022-10-17T02:36:19.118Z,99008.06
2022-10-17T02:38:46.598Z,99008.94
2022-10-17T02:41:18.584Z,99012.44
2022-10-17T02:43:47.908Z,99015.91
2022-10-17T02:46:22.968Z,99025.50
2022-10-17T02:48:59.000Z,99022.88
2022-10-17T02:52:01.170Z,99019.41
2022-10-17T02:54:36.711Z,99027.19
2022-10-17T02:57:20.481Z,99029.81
2022-10-17T02:59:48.248Z,99021.97
2022-10-17T03:02:14.966Z,99022.00
2022-10-17T03:04:46.592Z,99036.78
2022-10-17T03:07:16.003Z,99032.41
2022-10-17T03:09:51.542Z,99036.78
2022-10-17T03:12:20.842Z,99036.81
2022-10-17T03:14:54.139Z,99031.63
2022-10-17T03:17:23.960Z,99026.44
2022-10-17T03:19:52.225Z,99035.97
2022-10-17T03:22:18.894Z,99035.09
2022-10-17T03:24:48.563Z,99032.44
2022-10-17T03:27:15.373Z,99040.28
2022-10-17T03:29:42.273Z,99044.63
2022-10-17T03:32:09.509Z,99045.50
2022-10-17T03:34:36.183Z,99052.47
2022-10-17T03:40:05.838Z,99047.22
2022-10-17T03:42:35.585Z,99042.00
2022-10-17T03:45:11.011Z,99051.66
2022-10-17T03:47:44.056Z,99055.13
2022-10-17T03:50:12.290Z,99054.22
2022-10-17T03:52:41.880Z,99063.84
2022-10-17T03:55:08.724Z,99059.50
2022-10-17T03:57:41.100Z,99056.00
2022-10-17T04:00:17.571Z,99062.06
2022-10-17T04:02:45.162Z,99054.19
2022-10-17T04:05:37.445Z,99060.25
2022-10-17T04:08:04.896Z,99052.38
2022-10-17T04:10:53.748Z,99058.47
2022-10-17T04:13:23.192Z,99061.09
2022-10-17T04:16:09.055Z,99059.28
2022-10-17T04:18:38.348Z,99066.25
2022-10-17T04:21:08.087Z,99062.81
2022-10-17T04:23:35.659Z,99068.00
2022-10-17T04:26:04.078Z,99065.41
2022-10-17T04:28:31.584Z,99063.72
2022-10-17T04:31:00.224Z,99065.47
2022-10-17T04:33:27.142Z,99061.16
2022-10-17T04:35:57.598Z,99059.38
2022-10-17T04:38:27.730Z,99063.75
2022-10-17T04:40:58.143Z,99069.78
2022-10-17T04:43:29.142Z,99073.28
2022-10-17T04:45:57.923Z,99076.81
2022-10-17T04:48:25.346Z,99073.28
2022-10-17T04:51:03.833Z,99071.50
2022-10-17T04:53:36.329Z,99075.13
2022-10-17T04:56:09.227Z,99076.78
2022-10-17T04:58:36.530Z,99075.91
2022-10-17T05:01:13.085Z,99087.19
2022-10-17T05:03:40.888Z,99095.94
2022-10-17T05:06:21.506Z,99097.63
2022-10-17T05:08:48.756Z,99101.94
2022-10-17T05:11:23.348Z,99110.72
2022-10-17T05:13:54.337Z,99107.22
2022-10-17T05:16:21.952Z,99115.00
2022-10-17T05:18:54.017Z,99110.66
2022-10-17T05:21:24.981Z,99112.34
2022-10-17T05:23:52.450Z,99112.41
2022-10-17T05:26:22.515Z,99120.31
2022-10-17T05:28:49.574Z,99120.28
2022-10-17T05:31:19.342Z,99124.59
2022-10-17T05:33:46.352Z,99121.16
2022-10-17T05:36:13.058Z,99117.63
2022-10-17T05:38:39.752Z,99115.03
2022-10-17T05:41:07.952Z,99124.69
2022-10-17T05:43:38.193Z,99122.88
2022-10-17T05:46:06.523Z,99130.75
2022-10-17T05:48:37.173Z,99127.25
2022-10-17T05:51:09.204Z,99130.69
2022-10-17T05:53:38.743Z,99138.72
2022-10-17T05:56:09.964Z,99139.66
2022-10-17T05:58:50.246Z,99146.63
2022-10-17T06:01:19.748Z,99138.84
2022-10-17T06:03:48.410Z,99151.09
2022-10-17T06:06:18.015Z,99154.53
2022-10-17T06:08:44.919Z,99156.19
2022-10-17T06:11:14.991Z,99157.03
2022-10-17T06:13:42.205Z,99163.09
2022-10-17T06:16:09.078Z,99166.66
2022-10-17T06:18:36.089Z,99171.91
2022-10-17T06:21:11.292Z,99171.91
2022-10-17T06:23:38.482Z,99173.69
2022-10-17T06:26:06.518Z,99173.69
2022-10-17T06:28:35.109Z,99179.97
2022-10-17T06:31:13.922Z,99180.84
2022-10-17T06:33:40.724Z,99176.50
2022-10-17T06:36:13.337Z,99182.59
2022-10-17T06:38:40.842Z,99183.44
2022-10-17T06:41:10.384Z,99191.25
2022-10-17T06:43:38.207Z,99193.06
2022-10-17T06:46:05.239Z,99193.13
2022-10-17T06:48:32.235Z,99199.28
2022-10-17T06:51:00.763Z,99197.53
2022-10-17T06:53:35.075Z,99202.78
2022-10-17T06:56:04.310Z,99200.22
2022-10-17T06:58:33.730Z,99196.78
2022-10-17T07:01:06.181Z,99188.91
2022-10-17T07:03:33.139Z,99202.00
2022-10-17T07:05:59.800Z,99202.03
2022-10-17T07:08:27.032Z,99201.16
2022-10-17T07:10:54.137Z,99209.91
2022-10-17T07:13:23.812Z,99208.19
2022-10-17T07:15:50.525Z,99201.19
2022-10-17T07:18:17.197Z,99195.94
2022-10-17T07:20:43.830Z,99198.59
2022-10-17T07:23:10.510Z,99198.59
2022-10-17T07:25:40.058Z,99195.13
2022-10-17T07:28:07.010Z,99192.47
2022-10-17T07:30:33.763Z,99195.09
2022-10-17T07:33:03.853Z,99188.09
2022-10-17T07:35:30.696Z,99195.97
2022-10-17T07:37:57.423Z,99196.81
2022-10-17T07:40:26.599Z,99195.94
2022-10-17T07:42:56.547Z,99205.56
2022-10-17T07:45:24.009Z,99204.66
2022-10-17T07:47:50.744Z,99197.66
2022-10-17T07:50:17.583Z,99193.28
2022-10-17T07:52:44.317Z,99193.19
2022-10-17T07:55:11.038Z,99188.72
2022-10-17T07:57:37.725Z,99180.81
2022-10-17T08:00:05.405Z,99174.63
2022-10-17T08:02:32.529Z,99176.31
2022-10-17T08:04:59.419Z,99173.59
2022-10-17T08:07:29.298Z,99177.03
2022-10-17T08:09:56.479Z,99172.53
2022-10-17T08:12:27.750Z,99171.66
2022-10-17T08:14:55.752Z,99176.88
2022-10-17T08:17:22.583Z,99174.09
2022-10-17T08:19:51.424Z,99172.13
2022-10-17T08:22:19.773Z,99164.19
2022-10-17T08:24:46.951Z,99166.66
2022-10-17T08:27:21.578Z,99156.78
2022-10-17T08:29:51.640Z,99164.53
2022-10-17T08:32:19.477Z,99159.00
2022-10-17T08:34:46.341Z,99160.63
2022-10-17T08:37:18.646Z,99163.09
2022-10-17T08:39:45.849Z,99158.56
2022-10-17T08:42:45.858Z,99160.09
2022-10-17T08:45:32.334Z,99159.84
2022-10-17T08:48:01.188Z,99161.31
2022-10-17T08:50:36.862Z,99154.03
2022-10-17T08:53:29.212Z,99153.25
2022-10-17T08:55:56.786Z,99156.72
2022-10-17T08:58:28.176Z,99156.47
2022-10-17T09:01:27.440Z,99156.34
2022-10-17T09:04:17.317Z,99148.22
2022-10-17T09:06:55.743Z,99147.19
2022-10-17T09:09:41.591Z,99148.13
2022-10-17T09:12:19.270Z,99141.72
2022-10-17T09:14:49.098Z,99144.41
2022-10-17T09:17:25.861Z,99137.13
2022-10-17T09:20:05.717Z,99137.78
2022-10-17T09:22:52.303Z,99132.44
2022-10-17T09:25:23.953Z,99140.19
2022-10-17T09:28:12.750Z,99143.56
2022-10-17T09:31:06.035Z,99136.69
2022-10-17T09:33:53.792Z,99137.75
2022-10-17T09:36:26.704Z,99135.09
2022-10-17T09:39:11.522Z,99138.72
2022-10-17T09:41:56.209Z,99132.16
2022-10-17T09:44:26.136Z,99126.72
2022-10-17T09:47:24.138Z,99130.38
2022-10-17T09:49:53.842Z,99131.19
2022-10-17T09:52:41.616Z,99120.09
2022-10-17T09:55:22.754Z,99114.22
2022-10-17T09:57:52.294Z,99121.03
2022-10-17T10:00:26.122Z,99119.88
2022-10-17T10:03:16.346Z,99122.94
2022-10-17T10:06:08.115Z,99115.84
2022-10-17T10:08:53.173Z,99113.44
2022-10-17T10:11:27.690Z,99116.94
2022-10-17T10:13:54.608Z,99116.88
2022-10-17T10:16:32.209Z,99107.34
2022-10-17T10:19:07.052Z,99113.06
2022-10-17T10:21:37.342Z,99111.72
2022-10-17T10:24:13.872Z,99115.19
2022-10-17T10:26:49.175Z,99107.00
2022-10-17T10:29:32.490Z,99100.22
2022-10-17T10:32:11.981Z,99098.97
2022-10-17T10:34:52.821Z,99096.28
2022-10-17T10:37:24.151Z,99098.31
2022-10-17T10:40:00.378Z,99096.44
2022-10-17T10:42:33.932Z,99097.53
2022-10-17T10:45:23.682Z,99092.53
2022-10-17T10:47:57.677Z,99086.06
2022-10-17T10:50:53.440Z,99083.19
2022-10-17T10:53:47.433Z,99084.06
2022-10-17T10:56:23.034Z,99084.53
2022-10-17T10:59:04.438Z,99092.97
2022-10-17T11:02:02.439Z,99082.41
2022-10-17T11:04:42.348Z,99081.16
2022-10-17T11:07:24.911Z,99077.69
2022-10-17T11:10:09.400Z,99079.75
2022-10-17T11:13:07.109Z,99075.31
2022-10-17T11:15:53.981Z,99060.28
2022-10-17T11:18:29.100Z,99061.81
2022-10-17T11:21:06.045Z,99061.22
2022-10-17T11:23:53.384Z,99054.22
2022-10-17T11:26:31.343Z,99053.59
2022-10-17T11:29:06.810Z,99055.13
2022-10-17T11:31:46.206Z,99053.34
2022-10-17T11:34:20.865Z,99049.19
2022-10-17T11:36:52.961Z,99054.03
2022-10-17T11:39:27.863Z,99049.03
2022-10-17T11:42:04.327Z,99046.25
2022-10-17T11:44:40.453Z,99046.59
2022-10-17T11:47:22.762Z,99042.03
2022-10-17T11:49:54.500Z,99040.97
2022-10-17T11:52:55.390Z,99040.22
2022-10-17T11:55:32.829Z,99031.28
2022-10-17T11:58:20.206Z,99033.13
2022-10-17T12:00:49.965Z,99034.38
2022-10-17T12:03:25.996Z,99031.34
2022-10-17T12:06:11.607Z,99031.75
2022-10-17T12:08:57.897Z,99036.34
2022-10-17T12:11:27.636Z,99032.53
2022-10-17T12:13:56.336Z,99028.88
2022-10-17T12:16:25.002Z,99034.75
2022-10-17T12:19:11.458Z,99029.50
2022-10-17T12:22:02.958Z,99028.19
2022-10-17T12:24:41.045Z,99030.59
2022-10-17T12:27:23.651Z,99027.44
2022-10-17T12:29:50.696Z,99022.91
2022-10-17T12:32:19.972Z,99024.66
2022-10-17T12:34:56.675Z,99028.69
2022-10-17T12:37:41.958Z,99026.16
2022-10-17T12:40:27.269Z,99030.19
2022-10-17T12:42:54.627Z,99029.09
2022-10-17T12:45:44.846Z,99029.25
2022-10-17T12:48:11.293Z,99028.25
2022-10-17T12:50:58.332Z,99024.00
2022-10-17T12:53:54.265Z,99024.13
2022-10-17T12:56:41.002Z,99022.16
2022-10-17T12:59:27.736Z,99018.91
2022-10-17T13:01:59.171Z,99021.41
2022-10-17T13:04:26.912Z,99022.47
2022-10-17T13:06:54.954Z,99018.22
2022-10-17T13:09:32.828Z,99014.69
2022-10-17T13:12:02.520Z,99012.06
2022-10-17T13:14:31.420Z,99009.81
2022-10-17T13:17:02.827Z,99006.09
2022-10-17T13:19:31.464Z,99011.06
2022-10-17T13:21:59.881Z,99011.28
2022-10-17T13:24:33.265Z,99010.09
2022-10-17T13:27:00.577Z,99004.88
2022-10-17T13:29:28.733Z,99010.22
2022-10-17T13:32:05.623Z,99015.16
2022-10-17T13:34:33.310Z,99022.16
2022-10-17T13:37:14.323Z,99022.72
2022-10-17T13:39:55.161Z,99022.47
2022-10-17T13:42:25.055Z,99020.63
2022-10-17T13:44:52.152Z,99019.38
2022-10-17T13:47:26.241Z,99018.69
2022-10-17T13:49:55.449Z,99018.69
2022-10-17T13:52:24.183Z,99015.53
2022-10-17T13:54:51.677Z,99016.34
2022-10-17T13:57:25.334Z,99016.13
2022-10-17T13:59:53.808Z,99019.94
2022-10-17T14:02:22.069Z,99020.28
2022-10-17T14:05:16.091Z,99024.19
2022-10-17T14:08:11.383Z,99020.78
2022-10-17T14:10:38.861Z,99015.75
2022-10-17T14:15:48.886Z,99014.00
2022-10-17T14:18:19.343Z,99011.47
2022-10-17T14:23:39.157Z,99013.78
2022-10-17T14:26:05.936Z,99017.06
2022-10-17T14:28:32.604Z,99009.53
2022-10-17T14:31:16.647Z,99019.31
2022-10-17T14:33:46.876Z,99013.09
2022-10-17T14:36:16.487Z,99023.72
2022-10-17T14:38:49.765Z,99018.94
2022-10-17T14:44:16.997Z,99022.13
2022-10-17T14:46:49.563Z,99024.13
2022-10-17T14:49:23.196Z,99021.22
2022-10-17T14:52:13.418Z,99013.78
2022-10-17T14:54:46.568Z,99018.88
2022-10-17T14:57:18.097Z,99016.94
2022-10-17T14:59:59.938Z,99024.88
2022-10-17T15:02:30.766Z,99024.13
2022-10-17T15:04:57.861Z,99026.56
2022-10-17T15:07:25.058Z,99019.47
2022-10-17T15:09:52.899Z,99019.50
2022-10-17T15:12:21.738Z,99029.25
2022-10-17T15:14:48.629Z,99022.25
2022-10-17T15:17:27.646Z,99026.06
2022-10-17T15:19:54.853Z,99025.84
2022-10-17T15:22:26.962Z,99022.63
2022-10-17T15:24:53.926Z,99021.78
2022-10-17T15:27:24.747Z,99018.78
2022-10-17T15:29:51.801Z,99023.31
2022-10-17T15:32:18.636Z,99030.31
2022-10-17T15:34:45.201Z,99032.44
2022-10-17T15:37:22.020Z,99034.78
2022-10-17T15:39:54.807Z,99030.50
2022-10-17T15:42:22.761Z,99040.50
2022-10-17T15:44:50.405Z,99044.84
2022-10-17T15:47:24.588Z,99044.22
2022-10-17T15:49:51.101Z,99047.84
2022-10-17T15:52:17.674Z,99042.94
2022-10-17T15:54:44.264Z,99043.09
2022-10-17T15:57:16.570Z,99047.75
2022-10-17T15:59:43.809Z,99049.69
2022-10-17T16:02:14.683Z,99055.25
2022-10-17T16:04:41.296Z,99057.28
2022-10-17T16:07:08.085Z,99055.78
2022-10-17T16:09:34.977Z,99060.44
2022-10-17T16:12:02.234Z,99055.31
2022-10-17T16:14:28.782Z,99058.19
2022-10-17T16:16:55.257Z,99060.09
2022-10-17T16:19:22.827Z,99065.44
2022-10-17T16:21:49.459Z,99061.06
2022-10-17T16:24:17.820Z,99062.06
2022-10-17T16:26:44.309Z,99062.22
2022-10-17T16:29:10.893Z,99071.06
2022-10-17T16:31:40.552Z,99070.34
2022-10-17T16:34:08.975Z,99061.63
2022-10-17T16:36:35.539Z,99072.50
2022-10-17T16:39:02.773Z,99069.06
2022-10-17T16:41:37.380Z,99076.22
2022-10-17T16:44:05.092Z,99075.50
2022-10-17T16:46:32.166Z,99080.19
2022-10-17T16:48:58.772Z,99076.81
2022-10-17T16:51:29.285Z,99082.13
2022-10-17T16:53:57.607Z,99077.91
2022-10-17T16:56:34.578Z,99090.34
2022-10-17T16:59:04.462Z,99091.56
2022-10-17T17:01:31.653Z,99097.97
2022-10-17T17:03:59.069Z,99099.81
2022-10-17T17:06:28.279Z,99091.97
2022-10-17T17:08:55.927Z,99105.28
2022-10-17T17:11:26.477Z,99103.66
2022-10-17T17:13:55.743Z,99102.88
2022-10-17T17:16:24.559Z,99097.63
2022-10-17T17:19:01.693Z,99108.34
2022-10-17T17:21:28.975Z,99110.25
2022-10-17T17:24:03.910Z,99106.88
2022-10-17T17:26:38.373Z,99111.28
2022-10-17T17:29:05.194Z,99115.72
2022-10-17T17:31:33.698Z,99116.03
2022-10-17T17:34:06.838Z,99113.38
2022-10-17T17:36:36.516Z,99114.38
2022-10-17T17:39:11.555Z,99125.06
2022-10-17T17:41:41.875Z,99123.31
2022-10-17T17:44:15.762Z,99122.56
2022-10-17T17:46:45.671Z,99124.34
2022-10-17T17:49:12.593Z,99125.25
2022-10-17T17:51:41.595Z,99120.03
2022-10-17T17:54:11.713Z,99122.56
2022-10-17T17:56:41.876Z,99127.91
2022-10-17T17:59:11.609Z,99118.34
2022-10-17T18:01:39.240Z,99128.06
2022-10-17T18:04:09.407Z,99118.44
2022-10-17T18:06:52.259Z,99121.94
2022-10-17T18:09:37.361Z,99124.63
2022-10-17T18:12:04.629Z,99130.00
2022-10-17T18:14:34.453Z,99126.56
2022-10-17T18:17:01.043Z,99131.97
2022-10-17T18:19:33.985Z,99127.63
2022-10-17T18:22:00.597Z,99127.69
2022-10-17T18:24:34.469Z,99137.47
2022-10-17T18:27:15.939Z,99137.50
2022-10-17T18:32:33.477Z,99141.16
2022-10-17T18:35:00.503Z,99138.69
2022-10-17T18:37:27.245Z,99147.97
2022-10-17T18:39:55.895Z,99148.81
2022-10-17T18:42:25.195Z,99148.09
2022-10-17T18:44:51.784Z,99143.72
2022-10-17T18:47:18.326Z,99144.53
2022-10-17T18:49:44.861Z,99142.81
2022-10-17T18:52:11.430Z,99143.59
2022-10-17T18:54:38.154Z,99143.72
2022-10-17T18:57:04.991Z,99145.63
2022-10-17T18:59:32.086Z,99147.41
2022-10-17T19:01:59.144Z,99146.56
2022-10-17T19:04:26.315Z,99157.31
2022-10-17T19:06:53.136Z,99150.59
2022-10-17T19:09:22.234Z,99157.81
2022-10-17T19:11:52.178Z,99150.00
2022-10-17T19:14:18.998Z,99154.41
2022-10-17T19:16:48.949Z,99153.44
2022-10-17T19:19:25.372Z,99156.25
2022-10-17T19:21:52.705Z,99149.28
2022-10-17T19:24:24.945Z,99149.34
2022-10-17T19:26:53.823Z,99154.78
2022-10-17T19:29:22.227Z,99154.03
2022-10-17T19:31:49.504Z,99162.88
2022-10-17T19:34:17.905Z,99162.91
2022-10-17T19:36:45.144Z,99163.72
2022-10-17T19:39:15.526Z,99169.84
2022-10-17T19:41:44.093Z,99159.28
2022-10-17T19:44:11.242Z,99160.97
2022-10-17T19:46:38.897Z,99160.97
2022-10-17T19:49:06.277Z,99162.94
2022-10-17T19:51:33.517Z,99167.56
2022-10-17T19:54:01.261Z,99165.00
2022-10-17T19:56:32.404Z,99169.41
2022-10-17T19:59:02.740Z,99171.06
2022-10-17T20:01:38.804Z,99179.91
2022-10-17T20:04:06.706Z,99180.91
2022-10-17T20:06:33.975Z,99177.31
2022-10-17T20:09:00.767Z,99180.72
2022-10-17T20:11:28.791Z,99184.31
2022-10-17T20:13:56.338Z,99183.47
2022-10-17T20:16:25.273Z,99189.72
2022-10-17T20:18:54.769Z,99187.91
2022-10-17T20:21:34.920Z,99185.13
2022-10-17T20:24:05.771Z,99181.63
2022-10-17T20:26:38.096Z,99176.34
2022-10-17T20:29:11.072Z,99176.34
2022-10-17T20:31:39.107Z,99177.19
2022-10-17T20:34:06.106Z,99170.13
2022-10-17T20:36:36.973Z,99171.94
2022-10-17T20:39:04.775Z,99173.69
2022-10-17T20:41:31.512Z,99174.66
2022-10-17T20:43:58.333Z,99175.53
2022-10-17T20:46:45.290Z,99172.91
2022-10-17T20:49:15.669Z,99177.41
2022-10-17T20:51:42.784Z,99176.59
2022-10-17T20:54:10.085Z,99177.56
2022-10-17T20:56:38.660Z,99173.22
2022-10-17T20:59:07.830Z,99168.06
2022-10-17T21:01:35.872Z,99173.38
2022-10-17T21:04:27.143Z,99174.31
2022-10-17T21:06:51.918Z,99173.41
2022-10-17T21:09:18.657Z,99168.25
2022-10-17T21:11:45.367Z,99169.09
2022-10-17T21:14:18.426Z,99165.63
2022-10-17T21:16:45.184Z,99161.31
2022-10-17T21:19:15.844Z,99155.19
2022-10-17T21:21:45.098Z,99160.44
2022-10-17T21:24:20.948Z,99162.22
2022-10-17T21:26:55.219Z,99162.22
2022-10-17T21:29:23.171Z,99158.72
2022-10-17T21:31:50.137Z,99158.75
2022-10-17T21:34:21.743Z,99166.63
2022-10-17T21:36:48.924Z,99166.69
2022-10-17T21:39:16.079Z,99160.56
2022-10-17T21:41:43.769Z,99165.84
2022-10-17T21:44:15.798Z,99164.16
2022-10-17T21:46:43.150Z,99166.84
2022-10-17T21:49:12.752Z,99157.19
2022-10-17T21:51:39.948Z,99161.56
2022-10-17T21:54:07.170Z,99156.38
2022-10-17T21:56:37.334Z,99152.00
2022-10-17T21:59:05.144Z,99157.31
2022-10-17T22:01:35.638Z,99150.28
2022-10-17T22:04:08.749Z,99145.09
2022-10-17T22:06:40.091Z,99150.28
2022-10-17T22:09:14.071Z,99148.53
2022-10-17T22:11:41.383Z,99153.81
2022-10-17T22:14:15.321Z,99159.13
2022-10-17T22:16:44.257Z,99157.38
2022-10-17T22:19:12.286Z,99158.31
2022-10-17T22:21:39.120Z,99159.19
2022-10-17T22:24:08.476Z,99160.94
2022-10-17T22:26:37.163Z,99153.91
2022-10-17T22:29:05.966Z,99151.31
2022-10-17T22:31:32.757Z,99153.03
2022-10-17T22:33:59.391Z,99153.91
2022-10-17T22:36:26.102Z,99158.34
2022-10-17T22:38:52.828Z,99164.44
2022-10-17T22:41:19.662Z,99154.78
2022-10-17T22:43:46.374Z,99153.03
2022-10-17T22:46:16.188Z,99163.56
2022-10-17T22:48:43.013Z,99153.94
2022-10-17T22:51:09.940Z,99157.44
2022-10-17T22:53:37.737Z,99157.44
2022-10-17T22:56:08.136Z,99153.94
2022-10-17T22:58:35.870Z,99156.59
2022-10-17T23:01:04.239Z,99157.50
2022-10-17T23:03:31.732Z,99158.38
2022-10-17T23:05:58.964Z,99163.59
2022-10-17T23:08:26.653Z,99161.84
2022-10-17T23:10:53.961Z,99160.97
2022-10-17T23:13:22.023Z,99162.72
2022-10-17T23:15:53.530Z,99161.00
2022-10-17T23:18:21.084Z,99160.16
2022-10-17T23:20:48.218Z,99155.78
2022-10-17T23:23:15.216Z,99154.03
2022-10-17T23:25:42.171Z,99162.78
2022-10-17T23:28:09.931Z,99157.53
2022-10-17T23:30:37.775Z,99148.78
2022-10-17T23:33:04.646Z,99150.56
2022-10-17T23:35:32.169Z,99147.91
2022-10-17T23:37:59.090Z,99140.94
2022-10-17T23:40:25.918Z,99142.66
2022-10-17T23:42:52.500Z,99147.06
2022-10-17T23:45:19.192Z,99145.31
2022-10-17T23:47:45.982Z,99147.94
2022-10-17T23:50:12.952Z,99147.94
2022-10-17T23:52:39.934Z,99138.31
2022-10-17T23:55:07.435Z,99135.69
2022-10-17T23:57:36.319Z,99128.72
